CheckWX is a tool to help pilots better visualize weather data.  It is not intended as a substitute for an official pre-flight weather briefing.

08:29:09 UTC

KMCI METAR
Kansas City International Airport
Kansas City, Missouri, USA
Current

36 mins ago

KMCI 220753Z 06009KT 9SM CLR M02/M06 A3025 RMK AO2 SLP250 T10171061
Observed
Feb-22 @ 07:53 UTC
Wind
  • 060° at 9 KTS
Visibility
9 SM
Flight Rules
VFR
Cloud Levels
  • Clear skies
Temperature
-2°C / 28°F
Dewpoint
-6°C / 21°F
Humidity
74%
Altimeter
30.25" Hg
Pressure
1025 hPa
Previous

2 hours ago

KMCI 220653Z 07009KT 10SM OVC120 M01/M06 A3024 RMK AO2 SLP248 T10061056
Observed
Feb-22 @ 06:53 UTC
Wind
  • 070° at 9 KTS
Visibility
10 SM
Flight Rules
VFR
Cloud Levels
  • Overcast at 12,000' AGL
Temperature
-1°C / 30°F
Dewpoint
-6°C / 21°F
Humidity
69%
Altimeter
30.24" Hg
Pressure
1024.8 hPa
Previous

3 hours ago

KMCI 220553Z 09010KT 10SM OVC120 00/M05 A3022 RMK AO2 SLP242 4/004 T00001050 10017 21017 400391072 51013
Observed
Feb-22 @ 05:53 UTC
Wind
  • 090° at 10 KTS
Visibility
10 SM
Flight Rules
VFR
Cloud Levels
  • Overcast at 12,000' AGL
Temperature
C / 32°F
Dewpoint
-5°C / 23°F
Humidity
69%
Altimeter
30.22" Hg
Pressure
1024.2 hPa
Snow Depth
4"